createdAt,value
2022-12-01T00:00:17.681Z,8.53
2022-12-01T00:05:17.624Z,8.58
2022-12-01T00:10:17.568Z,8.59
2022-12-01T00:15:17.551Z,8.59
2022-12-01T00:20:17.490Z,8.57
2022-12-01T00:25:17.418Z,8.53
2022-12-01T05:00:29.927Z,7.98
2022-12-01T05:05:29.798Z,7.98
2022-12-01T05:10:29.741Z,8.13
2022-12-01T05:15:29.692Z,8.09
2022-12-01T05:20:29.651Z,8.18
2022-12-01T05:25:29.579Z,8.14
2022-12-01T05:30:29.529Z,8.14
2022-12-01T05:35:29.472Z,8.25
2022-12-01T05:40:29.440Z,8.12
2022-12-01T05:45:29.428Z,8.11
2022-12-01T05:50:29.312Z,8.18
2022-12-01T05:55:29.260Z,8.25
2022-12-01T06:00:29.228Z,8.25
2022-12-01T06:05:29.151Z,8.15
2022-12-01T06:10:29.103Z,8.03
2022-12-01T06:15:29.040Z,8.06
2022-12-01T06:20:29.019Z,8.15
2022-12-01T06:25:28.936Z,7.96
2022-12-01T06:30:28.886Z,7.98
2022-12-01T06:35:28.827Z,7.99
2022-12-01T06:40:28.802Z,7.91
2022-12-01T06:45:28.919Z,8.01
2022-12-01T06:50:28.668Z,7.96
2022-12-01T06:55:28.614Z,7.87
2022-12-01T07:00:28.773Z,7.82
2022-12-01T07:05:28.509Z,7.64
2022-12-01T07:10:28.557Z,7.69
2022-12-01T07:15:28.399Z,7.69
2022-12-01T07:20:28.400Z,7.79
2022-12-01T07:25:28.293Z,7.87
2022-12-01T07:30:28.759Z,7.81
2022-12-01T07:35:28.187Z,7.75
2022-12-01T07:40:28.156Z,7.77
2022-12-01T07:45:28.079Z,7.86
2022-12-01T07:50:28.041Z,7.85
2022-12-01T07:55:27.973Z,7.80
2022-12-01T08:00:27.953Z,7.67
2022-12-01T08:05:27.864Z,7.68
2022-12-01T08:10:27.810Z,7.82
2022-12-01T08:15:27.769Z,7.80
2022-12-01T08:20:27.870Z,7.84
2022-12-01T08:25:27.654Z,7.83
2022-12-01T08:30:27.598Z,7.75
2022-12-01T08:35:27.551Z,7.86
2022-12-01T08:40:27.508Z,7.85
2022-12-01T08:45:27.436Z,7.90
2022-12-01T08:50:27.394Z,7.82
2022-12-01T08:55:27.362Z,7.94
2022-12-01T09:00:27.377Z,7.98
2022-12-01T09:05:27.218Z,8.03
2022-12-01T09:10:27.229Z,8.11
2022-12-01T09:15:27.110Z,8.15
2022-12-01T09:20:27.145Z,8.19
2022-12-01T09:25:27.003Z,8.31
2022-12-01T09:30:26.952Z,8.65
2022-12-01T09:35:26.898Z,8.67
2022-12-01T09:40:26.874Z,8.70
2022-12-01T09:45:26.792Z,8.62
2022-12-01T09:50:26.739Z,8.52
2022-12-01T09:55:26.682Z,8.51
2022-12-01T10:00:26.656Z,8.63
2022-12-01T10:05:26.673Z,8.49
2022-12-01T10:10:26.524Z,8.39
2022-12-01T10:15:26.466Z,8.39
2022-12-01T10:20:26.437Z,8.46
2022-12-01T10:25:26.363Z,8.49
2022-12-01T10:30:26.313Z,8.38
2022-12-01T10:35:26.253Z,8.27
2022-12-01T10:40:26.222Z,8.41
2022-12-01T10:45:26.143Z,8.87
2022-12-01T10:50:26.090Z,8.87
2022-12-01T10:55:26.064Z,8.54
2022-12-01T11:00:57.976Z,8.43
2022-12-01T11:05:26.946Z,8.41
2022-12-01T11:10:25.862Z,8.28
2022-12-01T11:15:25.826Z,8.30
2022-12-01T11:20:25.791Z,8.39
2022-12-01T11:25:25.707Z,8.63
2022-12-01T11:30:25.664Z,8.66
2022-12-01T11:35:25.622Z,8.65
2022-12-01T11:40:25.572Z,8.50
2022-12-01T11:45:25.623Z,8.53
2022-12-01T11:50:25.446Z,8.49
2022-12-01T11:55:25.483Z,8.44
2022-12-01T12:00:25.362Z,8.53
2022-12-01T12:05:25.286Z,8.17
2022-12-01T12:10:25.299Z,8.20
2022-12-01T12:15:25.167Z,8.19
2022-12-01T12:20:25.177Z,8.14
2022-12-01T12:25:25.075Z,8.30
2022-12-01T12:30:25.014Z,8.45
2022-12-01T12:35:24.949Z,8.55
2022-12-01T12:40:24.934Z,8.92
2022-12-01T12:45:24.861Z,8.98
2022-12-01T12:50:24.803Z,8.85
2022-12-01T12:55:24.746Z,8.74
2022-12-01T13:00:24.729Z,8.63
2022-12-01T13:05:24.630Z,8.44
2022-12-01T13:10:24.585Z,8.79
2022-12-01T13:15:24.532Z,9.01
2022-12-01T13:20:24.503Z,8.82
2022-12-01T13:25:24.412Z,8.63
2022-12-01T13:30:24.370Z,8.90
2022-12-01T13:35:24.337Z,8.84
2022-12-01T13:40:24.290Z,8.92
2022-12-01T13:45:24.263Z,8.57
2022-12-01T13:50:24.161Z,8.61
2022-12-01T13:55:24.087Z,8.66
2022-12-01T14:00:24.279Z,8.59
2022-12-01T14:05:24.005Z,8.59
2022-12-01T14:10:23.931Z,8.51
2022-12-01T14:15:23.887Z,8.59
2022-12-01T14:20:23.862Z,8.54
2022-12-01T14:25:23.769Z,8.63
2022-12-01T14:30:23.733Z,8.59
2022-12-01T14:35:23.733Z,8.51
2022-12-01T14:40:23.656Z,8.64
2022-12-01T14:45:23.689Z,8.35
2022-12-01T14:50:25.003Z,8.72
2022-12-01T14:55:23.455Z,8.31
2022-12-01T15:00:23.434Z,8.36
2022-12-01T15:05:23.349Z,8.31
2022-12-01T15:10:23.294Z,8.34
2022-12-01T15:15:24.302Z,8.33
2022-12-01T15:20:23.212Z,8.10
2022-12-01T15:25:23.227Z,8.22
2022-12-01T15:30:23.157Z,8.23
2022-12-01T15:35:23.033Z,8.32
2022-12-01T15:45:24.145Z,8.12
2022-12-01T15:50:22.871Z,7.95
2022-12-01T15:55:22.812Z,7.94
2022-12-01T16:00:22.784Z,8.00
2022-12-01T16:05:22.704Z,7.97
2022-12-01T16:10:22.665Z,7.95
2022-12-01T16:15:22.585Z,7.92
2022-12-01T16:20:22.574Z,7.96
2022-12-01T16:25:22.496Z,7.87
2022-12-01T16:30:22.428Z,8.02
2022-12-01T16:35:22.385Z,7.99
2022-12-01T16:40:22.347Z,8.00
2022-12-01T16:45:22.272Z,7.95
2022-12-01T16:50:22.225Z,7.83
2022-12-01T16:55:22.166Z,7.90
2022-12-01T17:00:22.136Z,7.93
2022-12-01T17:05:22.057Z,7.81
2022-12-01T17:10:22.009Z,7.84
2022-12-01T17:15:29.081Z,7.83
2022-12-01T17:20:21.900Z,7.82
2022-12-01T17:25:21.853Z,7.65
2022-12-01T17:30:21.789Z,7.66
2022-12-01T17:35:21.756Z,7.75
2022-12-01T17:40:21.681Z,7.69
2022-12-01T17:45:21.632Z,7.62
2022-12-01T17:50:21.577Z,7.66
2022-12-01T17:55:21.580Z,7.68
2022-12-01T18:00:21.476Z,7.74
2022-12-01T18:05:21.534Z,7.54
2022-12-01T18:10:21.366Z,7.78
2022-12-01T18:15:21.330Z,7.60
2022-12-01T18:20:21.256Z,7.31
2022-12-01T18:25:21.260Z,7.42
2022-12-01T18:30:21.144Z,7.24
2022-12-01T18:35:21.121Z,7.34
2022-12-01T18:40:21.036Z,7.33
2022-12-01T18:45:21.565Z,7.11
2022-12-01T18:50:20.929Z,7.09
2022-12-01T18:55:20.904Z,6.97
2022-12-01T19:00:20.822Z,6.89
2022-12-01T19:05:20.771Z,6.95
2022-12-01T19:10:20.715Z,6.80
2022-12-01T19:15:20.683Z,6.97
2022-12-01T19:20:20.609Z,6.69
2022-12-01T19:25:20.560Z,6.90
2022-12-01T19:30:20.496Z,6.73
2022-12-01T19:35:20.616Z,6.61
2022-12-01T19:40:20.393Z,6.67
2022-12-01T19:45:20.338Z,6.59
2022-12-01T19:50:20.284Z,6.50
2022-12-01T19:55:20.252Z,6.57
2022-12-01T20:00:20.178Z,6.69
2022-12-01T20:05:20.118Z,6.66
2022-12-01T20:10:20.132Z,6.61
2022-12-01T20:15:20.032Z,6.69
2022-12-01T20:20:19.959Z,6.50
2022-12-01T20:25:19.957Z,6.66
2022-12-01T20:30:19.851Z,6.65
2022-12-01T20:35:19.831Z,6.56
2022-12-01T20:40:19.736Z,6.36
2022-12-01T20:45:19.674Z,6.32
2022-12-01T20:50:19.639Z,6.44
2022-12-01T20:55:19.585Z,6.27
2022-12-01T21:00:19.515Z,6.32
2022-12-01T21:05:19.457Z,6.22
2022-12-01T21:10:20.280Z,6.09
2022-12-01T21:15:19.370Z,6.15
2022-12-01T21:20:19.292Z,6.37
2022-12-01T21:25:19.244Z,6.28
2022-12-01T21:30:19.181Z,6.23
2022-12-01T21:35:19.148Z,6.32
2022-12-01T21:40:19.098Z,6.06
2022-12-01T21:45:19.019Z,6.04
2022-12-01T21:50:18.961Z,5.97
2022-12-01T21:55:18.930Z,6.16
2022-12-01T22:00:18.854Z,5.95
2022-12-01T22:05:18.796Z,6.16
2022-12-01T22:10:18.742Z,6.00
2022-12-01T22:15:18.710Z,5.96
2022-12-01T22:20:18.632Z,5.91
2022-12-01T22:25:18.576Z,6.00
2022-12-01T22:30:18.545Z,6.10
2022-12-01T22:35:18.495Z,5.91
2022-12-01T22:40:18.414Z,5.92
2022-12-01T22:45:18.356Z,5.93
2022-12-01T22:50:18.407Z,6.05
2022-12-01T22:55:18.269Z,5.97
2022-12-01T23:00:18.200Z,5.77
2022-12-01T23:05:18.144Z,5.88
2022-12-01T23:10:18.087Z,5.94
2022-12-01T23:15:25.090Z,5.95
2022-12-01T23:20:17.974Z,5.99
2022-12-01T23:25:17.921Z,5.75
2022-12-01T23:30:17.936Z,5.58
2022-12-01T23:35:17.830Z,5.60
2022-12-01T23:40:17.762Z,5.58
2022-12-01T23:45:17.701Z,5.81
2022-12-01T23:50:17.651Z,5.84
2022-12-01T23:55:17.611Z,5.79
